sensor_id;sensor_type;location;lat;lon;timestamp;pressure;altitude;pressure_sealevel;temperature
79488;BMP180;68949;53.176;18.088;2023-04-25T00:01:30;99437.40;;;
79488;BMP180;68949;53.176;18.088;2023-04-25T00:03:56;99433.80;;;
79488;BMP180;68949;53.176;18.088;2023-04-25T00:06:23;99431.80;;;
79488;BMP180;68949;53.176;18.088;2023-04-25T00:08:53;99432.00;;;
79488;BMP180;68949;53.176;18.088;2023-04-25T00:11:20;99434.00;;;
79488;BMP180;68949;53.176;18.088;2023-04-25T00:13:47;99431.80;;;
79488;BMP180;68949;53.176;18.088;2023-04-25T00:16:16;99426.00;;;
79488;BMP180;68949;53.176;18.088;2023-04-25T00:18:43;99424.20;;;
79488;BMP180;68949;53.176;18.088;2023-04-25T00:21:12;99427.20;;;
79488;BMP180;68949;53.176;18.088;2023-04-25T00:23:39;99430.40;;;
79488;BMP180;68949;53.176;18.088;2023-04-25T00:26:05;99429.20;;;
79488;BMP180;68949;53.176;18.088;2023-04-25T00:28:32;99428.40;;;
79488;BMP180;68949;53.176;18.088;2023-04-25T00:30:59;99429.00;;;
79488;BMP180;68949;53.176;18.088;2023-04-25T00:33:25;99423.00;;;
79488;BMP180;68949;53.176;18.088;2023-04-25T00:35:52;99430.20;;;
79488;BMP180;68949;53.176;18.088;2023-04-25T00:38:19;99429.60;;;
79488;BMP180;68949;53.176;18.088;2023-04-25T00:40:46;99425.80;;;
79488;BMP180;68949;53.176;18.088;2023-04-25T00:43:12;99426.40;;;
79488;BMP180;68949;53.176;18.088;2023-04-25T00:45:40;99429.00;;;
79488;BMP180;68949;53.176;18.088;2023-04-25T00:48:07;99427.60;;;
79488;BMP180;68949;53.176;18.088;2023-04-25T00:50:34;99430.00;;;
79488;BMP180;68949;53.176;18.088;2023-04-25T00:53:02;99431.40;;;
79488;BMP180;68949;53.176;18.088;2023-04-25T00:55:30;99430.80;;;
79488;BMP180;68949;53.176;18.088;2023-04-25T00:57:59;99430.60;;;
79488;BMP180;68949;53.176;18.088;2023-04-25T01:00:26;99424.60;;;
79488;BMP180;68949;53.176;18.088;2023-04-25T01:02:53;99422.00;;;
79488;BMP180;68949;53.176;18.088;2023-04-25T01:05:20;99427.20;;;
79488;BMP180;68949;53.176;18.088;2023-04-25T01:07:47;99426.40;;;
79488;BMP180;68949;53.176;18.088;2023-04-25T01:10:14;99423.60;;;
79488;BMP180;68949;53.176;18.088;2023-04-25T01:12:41;99429.00;;;
79488;BMP180;68949;53.176;18.088;2023-04-25T01:15:08;99426.20;;;
79488;BMP180;68949;53.176;18.088;2023-04-25T01:17:35;99426.20;;;
79488;BMP180;68949;53.176;18.088;2023-04-25T01:20:05;99423.20;;;
79488;BMP180;68949;53.176;18.088;2023-04-25T01:22:34;99424.40;;;
79488;BMP180;68949;53.176;18.088;2023-04-25T01:25:01;99425.80;;;
79488;BMP180;68949;53.176;18.088;2023-04-25T01:27:29;99420.00;;;
79488;BMP180;68949;53.176;18.088;2023-04-25T01:29:57;99415.80;;;
79488;BMP180;68949;53.176;18.088;2023-04-25T01:32:24;99420.20;;;
79488;BMP180;68949;53.176;18.088;2023-04-25T01:34:51;99420.40;;;
79488;BMP180;68949;53.176;18.088;2023-04-25T01:37:19;99422.20;;;
79488;BMP180;68949;53.176;18.088;2023-04-25T01:39:47;99421.80;;;
79488;BMP180;68949;53.176;18.088;2023-04-25T01:42:15;99425.60;;;
79488;BMP180;68949;53.176;18.088;2023-04-25T01:44:42;99421.60;;;
79488;BMP180;68949;53.176;18.088;2023-04-25T01:47:08;99419.60;;;
79488;BMP180;68949;53.176;18.088;2023-04-25T01:49:35;99423.20;;;
79488;BMP180;68949;53.176;18.088;2023-04-25T01:52:02;99420.40;;;
79488;BMP180;68949;53.176;18.088;2023-04-25T01:54:28;99423.00;;;
79488;BMP180;68949;53.176;18.088;2023-04-25T01:56:57;99424.20;;;
79488;BMP180;68949;53.176;18.088;2023-04-25T01:59:24;99423.00;;;
79488;BMP180;68949;53.176;18.088;2023-04-25T02:02:36;99428.40;;;
79488;BMP180;68949;53.176;18.088;2023-04-25T02:05:05;99431.80;;;
79488;BMP180;68949;53.176;18.088;2023-04-25T02:07:34;99428.60;;;
79488;BMP180;68949;53.176;18.088;2023-04-25T02:10:02;99427.00;;;
79488;BMP180;68949;53.176;18.088;2023-04-25T02:12:32;99422.40;;;
79488;BMP180;68949;53.176;18.088;2023-04-25T02:15:02;99422.60;;;
79488;BMP180;68949;53.176;18.088;2023-04-25T02:17:42;99421.00;;;
79488;BMP180;68949;53.176;18.088;2023-04-25T02:20:10;99426.80;;;
79488;BMP180;68949;53.176;18.088;2023-04-25T02:22:37;99433.80;;;
79488;BMP180;68949;53.176;18.088;2023-04-25T02:25:06;99433.20;;;
79488;BMP180;68949;53.176;18.088;2023-04-25T02:27:33;99433.80;;;
79488;BMP180;68949;53.176;18.088;2023-04-25T02:30:00;99438.00;;;
79488;BMP180;68949;53.176;18.088;2023-04-25T02:32:27;99436.20;;;
79488;BMP180;68949;53.176;18.088;2023-04-25T02:34:53;99440.20;;;
79488;BMP180;68949;53.176;18.088;2023-04-25T02:37:20;99442.60;;;
79488;BMP180;68949;53.176;18.088;2023-04-25T02:39:47;99439.80;;;
79488;BMP180;68949;53.176;18.088;2023-04-25T02:42:13;99438.60;;;
79488;BMP180;68949;53.176;18.088;2023-04-25T02:44:40;99441.40;;;
79488;BMP180;68949;53.176;18.088;2023-04-25T02:47:07;99445.40;;;
79488;BMP180;68949;53.176;18.088;2023-04-25T02:49:34;99438.40;;;
79488;BMP180;68949;53.176;18.088;2023-04-25T02:52:00;99440.80;;;
79488;BMP180;68949;53.176;18.088;2023-04-25T02:54:27;99441.80;;;
79488;BMP180;68949;53.176;18.088;2023-04-25T02:56:55;99444.00;;;
79488;BMP180;68949;53.176;18.088;2023-04-25T02:59:25;99443.20;;;
79488;BMP180;68949;53.176;18.088;2023-04-25T03:01:52;99443.80;;;
79488;BMP180;68949;53.176;18.088;2023-04-25T03:04:19;99437.60;;;
79488;BMP180;68949;53.176;18.088;2023-04-25T03:06:45;99430.40;;;
79488;BMP180;68949;53.176;18.088;2023-04-25T03:09:12;99433.20;;;
79488;BMP180;68949;53.176;18.088;2023-04-25T03:11:39;99434.80;;;
79488;BMP180;68949;53.176;18.088;2023-04-25T03:14:06;99427.80;;;
79488;BMP180;68949;53.176;18.088;2023-04-25T03:16:33;99424.40;;;
79488;BMP180;68949;53.176;18.088;2023-04-25T03:19:00;99427.40;;;
79488;BMP180;68949;53.176;18.088;2023-04-25T03:21:27;99426.60;;;
79488;BMP180;68949;53.176;18.088;2023-04-25T03:23:53;99432.20;;;
79488;BMP180;68949;53.176;18.088;2023-04-25T03:26:20;99435.60;;;
79488;BMP180;68949;53.176;18.088;2023-04-25T03:28:47;99435.80;;;
79488;BMP180;68949;53.176;18.088;2023-04-25T03:31:13;99430.60;;;
79488;BMP180;68949;53.176;18.088;2023-04-25T03:33:40;99437.40;;;
79488;BMP180;68949;53.176;18.088;2023-04-25T03:36:07;99434.20;;;
79488;BMP180;68949;53.176;18.088;2023-04-25T03:38:34;99437.80;;;
79488;BMP180;68949;53.176;18.088;2023-04-25T03:41:02;99434.60;;;
79488;BMP180;68949;53.176;18.088;2023-04-25T03:43:40;99437.20;;;
79488;BMP180;68949;53.176;18.088;2023-04-25T03:46:10;99436.40;;;
79488;BMP180;68949;53.176;18.088;2023-04-25T03:48:37;99437.60;;;
79488;BMP180;68949;53.176;18.088;2023-04-25T03:51:04;99447.60;;;
79488;BMP180;68949;53.176;18.088;2023-04-25T03:53:31;99446.00;;;
79488;BMP180;68949;53.176;18.088;2023-04-25T03:56:18;99449.60;;;
79488;BMP180;68949;53.176;18.088;2023-04-25T03:58:46;99451.20;;;
79488;BMP180;68949;53.176;18.088;2023-04-25T04:01:13;99455.20;;;
79488;BMP180;68949;53.176;18.088;2023-04-25T04:03:40;99463.80;;;
79488;BMP180;68949;53.176;18.088;2023-04-25T04:06:07;99468.00;;;
79488;BMP180;68949;53.176;18.088;2023-04-25T04:08:45;99468.40;;;
79488;BMP180;68949;53.176;18.088;2023-04-25T04:11:12;99476.40;;;
79488;BMP180;68949;53.176;18.088;2023-04-25T04:13:39;99475.60;;;
79488;BMP180;68949;53.176;18.088;2023-04-25T04:16:06;99473.60;;;
79488;BMP180;68949;53.176;18.088;2023-04-25T04:18:33;99474.80;;;
79488;BMP180;68949;53.176;18.088;2023-04-25T04:21:00;99480.00;;;
79488;BMP180;68949;53.176;18.088;2023-04-25T04:23:29;99479.40;;;
79488;BMP180;68949;53.176;18.088;2023-04-25T04:25:59;99480.60;;;
79488;BMP180;68949;53.176;18.088;2023-04-25T04:28:40;99487.80;;;
79488;BMP180;68949;53.176;18.088;2023-04-25T04:31:36;99486.40;;;
79488;BMP180;68949;53.176;18.088;2023-04-25T04:34:06;99489.80;;;
79488;BMP180;68949;53.176;18.088;2023-04-25T04:36:34;99492.40;;;
79488;BMP180;68949;53.176;18.088;2023-04-25T04:39:01;99494.20;;;
79488;BMP180;68949;53.176;18.088;2023-04-25T04:41:40;99495.60;;;
79488;BMP180;68949;53.176;18.088;2023-04-25T04:44:14;99491.40;;;
79488;BMP180;68949;53.176;18.088;2023-04-25T04:46:55;99490.80;;;
79488;BMP180;68949;53.176;18.088;2023-04-25T04:49:34;99492.60;;;
79488;BMP180;68949;53.176;18.088;2023-04-25T04:52:19;99489.80;;;
79488;BMP180;68949;53.176;18.088;2023-04-25T04:55:06;99491.80;;;
79488;BMP180;68949;53.176;18.088;2023-04-25T04:57:43;99496.40;;;
79488;BMP180;68949;53.176;18.088;2023-04-25T05:00:24;99498.00;;;
79488;BMP180;68949;53.176;18.088;2023-04-25T05:03:12;99493.20;;;
79488;BMP180;68949;53.176;18.088;2023-04-25T05:05:48;99488.60;;;
79488;BMP180;68949;53.176;18.088;2023-04-25T05:08:36;99493.60;;;
79488;BMP180;68949;53.176;18.088;2023-04-25T05:11:16;99501.40;;;
79488;BMP180;68949;53.176;18.088;2023-04-25T05:14:12;99499.20;;;
79488;BMP180;68949;53.176;18.088;2023-04-25T05:16:59;99501.80;;;
79488;BMP180;68949;53.176;18.088;2023-04-25T05:19:36;99494.60;;;
79488;BMP180;68949;53.176;18.088;2023-04-25T05:22:18;99494.00;;;
79488;BMP180;68949;53.176;18.088;2023-04-25T05:25:03;99495.00;;;
79488;BMP180;68949;53.176;18.088;2023-04-25T05:27:51;99496.00;;;
79488;BMP180;68949;53.176;18.088;2023-04-25T05:30:39;99495.20;;;
79488;BMP180;68949;53.176;18.088;2023-04-25T05:33:11;99502.00;;;
79488;BMP180;68949;53.176;18.088;2023-04-25T05:35:39;99493.60;;;
79488;BMP180;68949;53.176;18.088;2023-04-25T05:38:05;99500.20;;;
79488;BMP180;68949;53.176;18.088;2023-04-25T05:40:51;99510.20;;;
79488;BMP180;68949;53.176;18.088;2023-04-25T05:43:38;99495.40;;;
79488;BMP180;68949;53.176;18.088;2023-04-25T05:46:22;99502.80;;;
79488;BMP180;68949;53.176;18.088;2023-04-25T05:49:11;99504.40;;;
79488;BMP180;68949;53.176;18.088;2023-04-25T05:51:59;99494.40;;;
79488;BMP180;68949;53.176;18.088;2023-04-25T05:54:48;99495.80;;;
79488;BMP180;68949;53.176;18.088;2023-04-25T05:57:26;99503.20;;;
79488;BMP180;68949;53.176;18.088;2023-04-25T05:59:54;99498.40;;;
79488;BMP180;68949;53.176;18.088;2023-04-25T06:02:22;99494.20;;;
79488;BMP180;68949;53.176;18.088;2023-04-25T06:04:50;99486.40;;;
79488;BMP180;68949;53.176;18.088;2023-04-25T06:07:19;99495.00;;;
79488;BMP180;68949;53.176;18.088;2023-04-25T06:09:46;99485.20;;;
79488;BMP180;68949;53.176;18.088;2023-04-25T06:12:13;99496.80;;;
79488;BMP180;68949;53.176;18.088;2023-04-25T06:14:40;99496.80;;;
79488;BMP180;68949;53.176;18.088;2023-04-25T06:17:07;99490.80;;;
79488;BMP180;68949;53.176;18.088;2023-04-25T06:19:36;99484.80;;;
79488;BMP180;68949;53.176;18.088;2023-04-25T06:22:02;99485.80;;;
79488;BMP180;68949;53.176;18.088;2023-04-25T06:24:30;99492.40;;;
79488;BMP180;68949;53.176;18.088;2023-04-25T06:26:57;99487.60;;;
79488;BMP180;68949;53.176;18.088;2023-04-25T06:29:23;99493.20;;;
79488;BMP180;68949;53.176;18.088;2023-04-25T06:31:50;99481.80;;;
79488;BMP180;68949;53.176;18.088;2023-04-25T06:34:18;99492.00;;;
79488;BMP180;68949;53.176;18.088;2023-04-25T06:36:44;99472.20;;;
79488;BMP180;68949;53.176;18.088;2023-04-25T06:39:12;99479.40;;;
79488;BMP180;68949;53.176;18.088;2023-04-25T06:41:39;99492.20;;;
79488;BMP180;68949;53.176;18.088;2023-04-25T06:44:07;99481.00;;;
79488;BMP180;68949;53.176;18.088;2023-04-25T06:46:39;99473.60;;;
79488;BMP180;68949;53.176;18.088;2023-04-25T06:49:06;99466.60;;;
79488;BMP180;68949;53.176;18.088;2023-04-25T06:51:33;99468.20;;;
79488;BMP180;68949;53.176;18.088;2023-04-25T06:54:00;99465.20;;;
79488;BMP180;68949;53.176;18.088;2023-04-25T06:56:35;99478.80;;;
79488;BMP180;68949;53.176;18.088;2023-04-25T06:59:13;99475.00;;;
79488;BMP180;68949;53.176;18.088;2023-04-25T07:01:41;99473.00;;;
79488;BMP180;68949;53.176;18.088;2023-04-25T07:04:15;99470.00;;;
79488;BMP180;68949;53.176;18.088;2023-04-25T07:06:46;99458.00;;;
79488;BMP180;68949;53.176;18.088;2023-04-25T07:09:16;99470.20;;;
79488;BMP180;68949;53.176;18.088;2023-04-25T07:11:43;99437.60;;;
79488;BMP180;68949;53.176;18.088;2023-04-25T07:14:10;99447.20;;;
79488;BMP180;68949;53.176;18.088;2023-04-25T07:16:37;99459.60;;;
79488;BMP180;68949;53.176;18.088;2023-04-25T07:19:03;99450.80;;;
79488;BMP180;68949;53.176;18.088;2023-04-25T07:21:30;99450.40;;;
79488;BMP180;68949;53.176;18.088;2023-04-25T07:23:59;99463.20;;;
79488;BMP180;68949;53.176;18.088;2023-04-25T07:26:29;99464.40;;;
79488;BMP180;68949;53.176;18.088;2023-04-25T07:29:17;99442.00;;;
79488;BMP180;68949;53.176;18.088;2023-04-25T07:31:44;99435.40;;;
79488;BMP180;68949;53.176;18.088;2023-04-25T07:34:10;99453.00;;;
79488;BMP180;68949;53.176;18.088;2023-04-25T07:36:38;99458.80;;;
79488;BMP180;68949;53.176;18.088;2023-04-25T07:39:05;99453.60;;;
79488;BMP180;68949;53.176;18.088;2023-04-25T07:41:33;99459.40;;;
79488;BMP180;68949;53.176;18.088;2023-04-25T07:43:59;99452.40;;;
79488;BMP180;68949;53.176;18.088;2023-04-25T07:46:26;99450.80;;;
79488;BMP180;68949;53.176;18.088;2023-04-25T07:48:53;99456.40;;;
79488;BMP180;68949;53.176;18.088;2023-04-25T07:51:20;99441.00;;;
79488;BMP180;68949;53.176;18.088;2023-04-25T07:53:49;99444.40;;;
79488;BMP180;68949;53.176;18.088;2023-04-25T07:56:16;99456.60;;;
79488;BMP180;68949;53.176;18.088;2023-04-25T07:58:45;99441.60;;;
79488;BMP180;68949;53.176;18.088;2023-04-25T08:01:13;99446.20;;;
79488;BMP180;68949;53.176;18.088;2023-04-25T08:03:53;99456.20;;;
79488;BMP180;68949;53.176;18.088;2023-04-25T08:06:27;99463.80;;;
79488;BMP180;68949;53.176;18.088;2023-04-25T08:09:15;99469.60;;;
79488;BMP180;68949;53.176;18.088;2023-04-25T08:11:42;99470.80;;;
79488;BMP180;68949;53.176;18.088;2023-04-25T08:14:12;99471.00;;;
79488;BMP180;68949;53.176;18.088;2023-04-25T08:16:39;99462.00;;;
79488;BMP180;68949;53.176;18.088;2023-04-25T08:19:07;99466.00;;;
79488;BMP180;68949;53.176;18.088;2023-04-25T08:21:34;99486.00;;;
79488;BMP180;68949;53.176;18.088;2023-04-25T08:24:03;99474.40;;;
79488;BMP180;68949;53.176;18.088;2023-04-25T08:26:33;99474.20;;;
79488;BMP180;68949;53.176;18.088;2023-04-25T08:29:03;99494.60;;;
79488;BMP180;68949;53.176;18.088;2023-04-25T08:31:31;99494.40;;;
79488;BMP180;68949;53.176;18.088;2023-04-25T08:34:00;99489.20;;;
79488;BMP180;68949;53.176;18.088;2023-04-25T08:36:38;99505.60;;;
79488;BMP180;68949;53.176;18.088;2023-04-25T08:39:05;99507.60;;;
79488;BMP180;68949;53.176;18.088;2023-04-25T08:41:37;99492.00;;;
79488;BMP180;68949;53.176;18.088;2023-04-25T08:44:10;99496.20;;;
79488;BMP180;68949;53.176;18.088;2023-04-25T08:46:39;99487.00;;;
79488;BMP180;68949;53.176;18.088;2023-04-25T08:49:17;99477.80;;;
79488;BMP180;68949;53.176;18.088;2023-04-25T08:51:47;99492.80;;;
79488;BMP180;68949;53.176;18.088;2023-04-25T08:54:14;99470.80;;;
79488;BMP180;68949;53.176;18.088;2023-04-25T08:56:47;99482.80;;;
79488;BMP180;68949;53.176;18.088;2023-04-25T08:59:14;99444.60;;;
79488;BMP180;68949;53.176;18.088;2023-04-25T09:01:42;99443.80;;;
79488;BMP180;68949;53.176;18.088;2023-04-25T09:04:12;99463.00;;;
79488;BMP180;68949;53.176;18.088;2023-04-25T09:06:40;99471.20;;;
79488;BMP180;68949;53.176;18.088;2023-04-25T09:09:08;99485.60;;;
79488;BMP180;68949;53.176;18.088;2023-04-25T09:11:37;99482.60;;;
79488;BMP180;68949;53.176;18.088;2023-04-25T09:14:22;99502.60;;;
79488;BMP180;68949;53.176;18.088;2023-04-25T09:17:11;99509.40;;;
79488;BMP180;68949;53.176;18.088;2023-04-25T09:19:50;99512.20;;;
79488;BMP180;68949;53.176;18.088;2023-04-25T09:22:27;99505.40;;;
79488;BMP180;68949;53.176;18.088;2023-04-25T09:24:53;99500.00;;;
79488;BMP180;68949;53.176;18.088;2023-04-25T09:27:22;99513.80;;;
79488;BMP180;68949;53.176;18.088;2023-04-25T09:30:05;99505.80;;;
79488;BMP180;68949;53.176;18.088;2023-04-25T09:33:10;99509.00;;;
79488;BMP180;68949;53.176;18.088;2023-04-25T09:35:41;99499.20;;;
79488;BMP180;68949;53.176;18.088;2023-04-25T09:38:15;99517.00;;;
79488;BMP180;68949;53.176;18.088;2023-04-25T09:40:53;99517.40;;;
79488;BMP180;68949;53.176;18.088;2023-04-25T09:43:34;99503.00;;;
79488;BMP180;68949;53.176;18.088;2023-04-25T09:46:02;99509.20;;;
79488;BMP180;68949;53.176;18.088;2023-04-25T09:48:29;99496.00;;;
79488;BMP180;68949;53.176;18.088;2023-04-25T09:51:08;99489.60;;;
79488;BMP180;68949;53.176;18.088;2023-04-25T09:53:39;99523.40;;;
79488;BMP180;68949;53.176;18.088;2023-04-25T09:56:13;99508.20;;;
79488;BMP180;68949;53.176;18.088;2023-04-25T09:58:40;99495.40;;;
79488;BMP180;68949;53.176;18.088;2023-04-25T10:01:10;99517.20;;;
79488;BMP180;68949;53.176;18.088;2023-04-25T10:03:44;99498.00;;;
79488;BMP180;68949;53.176;18.088;2023-04-25T10:06:27;99510.00;;;
79488;BMP180;68949;53.176;18.088;2023-04-25T10:08:55;99502.20;;;
79488;BMP180;68949;53.176;18.088;2023-04-25T10:11:24;99496.00;;;
79488;BMP180;68949;53.176;18.088;2023-04-25T10:13:52;99507.00;;;
79488;BMP180;68949;53.176;18.088;2023-04-25T10:16:20;99516.00;;;
79488;BMP180;68949;53.176;18.088;2023-04-25T10:18:48;99505.40;;;
79488;BMP180;68949;53.176;18.088;2023-04-25T10:21:16;99509.20;;;
79488;BMP180;68949;53.176;18.088;2023-04-25T10:23:44;99528.40;;;
79488;BMP180;68949;53.176;18.088;2023-04-25T10:26:12;99526.00;;;
79488;BMP180;68949;53.176;18.088;2023-04-25T10:29:01;99523.40;;;
79488;BMP180;68949;53.176;18.088;2023-04-25T10:31:30;99526.80;;;
79488;BMP180;68949;53.176;18.088;2023-04-25T10:33:59;99526.60;;;
79488;BMP180;68949;53.176;18.088;2023-04-25T10:36:32;99503.00;;;
79488;BMP180;68949;53.176;18.088;2023-04-25T10:39:06;99517.00;;;
79488;BMP180;68949;53.176;18.088;2023-04-25T10:41:57;99531.40;;;
79488;BMP180;68949;53.176;18.088;2023-04-25T10:44:31;99513.80;;;
79488;BMP180;68949;53.176;18.088;2023-04-25T10:47:00;99529.40;;;
79488;BMP180;68949;53.176;18.088;2023-04-25T10:49:42;99514.20;;;
79488;BMP180;68949;53.176;18.088;2023-04-25T10:52:26;99527.60;;;
79488;BMP180;68949;53.176;18.088;2023-04-25T10:54:55;99505.60;;;
79488;BMP180;68949;53.176;18.088;2023-04-25T10:57:41;99518.00;;;
79488;BMP180;68949;53.176;18.088;2023-04-25T11:00:13;99509.00;;;
79488;BMP180;68949;53.176;18.088;2023-04-25T11:02:52;99503.80;;;
79488;BMP180;68949;53.176;18.088;2023-04-25T11:05:36;99519.00;;;
79488;BMP180;68949;53.176;18.088;2023-04-25T11:08:11;99530.80;;;
79488;BMP180;68949;53.176;18.088;2023-04-25T11:10:40;99521.40;;;
79488;BMP180;68949;53.176;18.088;2023-04-25T11:13:07;99521.20;;;
79488;BMP180;68949;53.176;18.088;2023-04-25T11:15:34;99483.60;;;
79488;BMP180;68949;53.176;18.088;2023-04-25T11:18:01;99503.60;;;
79488;BMP180;68949;53.176;18.088;2023-04-25T11:20:27;99514.80;;;
79488;BMP180;68949;53.176;18.088;2023-04-25T11:22:58;99512.60;;;
79488;BMP180;68949;53.176;18.088;2023-04-25T11:25:27;99531.60;;;
79488;BMP180;68949;53.176;18.088;2023-04-25T11:27:57;99543.80;;;
79488;BMP180;68949;53.176;18.088;2023-04-25T11:30:26;99549.60;;;
79488;BMP180;68949;53.176;18.088;2023-04-25T11:32:53;99544.20;;;
79488;BMP180;68949;53.176;18.088;2023-04-25T11:35:20;99532.80;;;
79488;BMP180;68949;53.176;18.088;2023-04-25T11:37:49;99536.20;;;
79488;BMP180;68949;53.176;18.088;2023-04-25T11:40:17;99535.60;;;
79488;BMP180;68949;53.176;18.088;2023-04-25T11:42:46;99545.80;;;
79488;BMP180;68949;53.176;18.088;2023-04-25T11:45:14;99559.00;;;
79488;BMP180;68949;53.176;18.088;2023-04-25T11:47:41;99551.40;;;
79488;BMP180;68949;53.176;18.088;2023-04-25T11:50:09;99554.40;;;
79488;BMP180;68949;53.176;18.088;2023-04-25T11:55:09;99531.40;;;
79488;BMP180;68949;53.176;18.088;2023-04-25T11:57:42;99547.00;;;
79488;BMP180;68949;53.176;18.088;2023-04-25T12:00:16;99529.60;;;
79488;BMP180;68949;53.176;18.088;2023-04-25T12:02:52;99565.80;;;
79488;BMP180;68949;53.176;18.088;2023-04-25T12:05:21;99549.80;;;
79488;BMP180;68949;53.176;18.088;2023-04-25T12:07:49;99548.80;;;
79488;BMP180;68949;53.176;18.088;2023-04-25T12:10:18;99561.00;;;
79488;BMP180;68949;53.176;18.088;2023-04-25T12:12:47;99572.00;;;
79488;BMP180;68949;53.176;18.088;2023-04-25T12:15:17;99570.00;;;
79488;BMP180;68949;53.176;18.088;2023-04-25T12:17:47;99568.80;;;
79488;BMP180;68949;53.176;18.088;2023-04-25T12:20:17;99554.60;;;
79488;BMP180;68949;53.176;18.088;2023-04-25T12:22:47;99524.40;;;
79488;BMP180;68949;53.176;18.088;2023-04-25T12:25:41;99542.20;;;
79488;BMP180;68949;53.176;18.088;2023-04-25T12:28:22;99547.40;;;
79488;BMP180;68949;53.176;18.088;2023-04-25T12:31:02;99538.60;;;
79488;BMP180;68949;53.176;18.088;2023-04-25T12:33:36;99548.40;;;
79488;BMP180;68949;53.176;18.088;2023-04-25T12:36:05;99533.20;;;
79488;BMP180;68949;53.176;18.088;2023-04-25T12:38:39;99540.20;;;
79488;BMP180;68949;53.176;18.088;2023-04-25T12:41:06;99534.60;;;
79488;BMP180;68949;53.176;18.088;2023-04-25T12:43:34;99537.00;;;
79488;BMP180;68949;53.176;18.088;2023-04-25T12:46:02;99545.40;;;
79488;BMP180;68949;53.176;18.088;2023-04-25T12:48:29;99552.00;;;
79488;BMP180;68949;53.176;18.088;2023-04-25T12:50:56;99537.20;;;
79488;BMP180;68949;53.176;18.088;2023-04-25T12:53:23;99555.40;;;
79488;BMP180;68949;53.176;18.088;2023-04-25T12:55:51;99547.60;;;
79488;BMP180;68949;53.176;18.088;2023-04-25T12:58:20;99531.00;;;
79488;BMP180;68949;53.176;18.088;2023-04-25T13:00:46;99527.20;;;
79488;BMP180;68949;53.176;18.088;2023-04-25T13:03:14;99531.80;;;
79488;BMP180;68949;53.176;18.088;2023-04-25T13:05:40;99529.40;;;
79488;BMP180;68949;53.176;18.088;2023-04-25T13:08:09;99544.80;;;
79488;BMP180;68949;53.176;18.088;2023-04-25T13:10:36;99523.80;;;
79488;BMP180;68949;53.176;18.088;2023-04-25T13:13:05;99534.80;;;
79488;BMP180;68949;53.176;18.088;2023-04-25T13:15:32;99529.60;;;
79488;BMP180;68949;53.176;18.088;2023-04-25T13:17:58;99553.80;;;
79488;BMP180;68949;53.176;18.088;2023-04-25T13:20:25;99543.20;;;
79488;BMP180;68949;53.176;18.088;2023-04-25T13:22:52;99570.60;;;
79488;BMP180;68949;53.176;18.088;2023-04-25T13:25:18;99570.60;;;
79488;BMP180;68949;53.176;18.088;2023-04-25T13:27:45;99576.40;;;
79488;BMP180;68949;53.176;18.088;2023-04-25T13:30:13;99576.20;;;
79488;BMP180;68949;53.176;18.088;2023-04-25T13:32:39;99581.40;;;
79488;BMP180;68949;53.176;18.088;2023-04-25T13:35:11;99596.20;;;
79488;BMP180;68949;53.176;18.088;2023-04-25T13:37:39;99579.00;;;
79488;BMP180;68949;53.176;18.088;2023-04-25T13:40:10;99577.80;;;
79488;BMP180;68949;53.176;18.088;2023-04-25T13:42:38;99587.60;;;
79488;BMP180;68949;53.176;18.088;2023-04-25T13:45:07;99585.40;;;
79488;BMP180;68949;53.176;18.088;2023-04-25T13:47:34;99588.80;;;
79488;BMP180;68949;53.176;18.088;2023-04-25T13:50:02;99593.60;;;
79488;BMP180;68949;53.176;18.088;2023-04-25T13:52:29;99592.80;;;
79488;BMP180;68949;53.176;18.088;2023-04-25T13:54:56;99602.00;;;
79488;BMP180;68949;53.176;18.088;2023-04-25T13:57:23;99599.60;;;
79488;BMP180;68949;53.176;18.088;2023-04-25T13:59:50;99613.20;;;
79488;BMP180;68949;53.176;18.088;2023-04-25T14:02:17;99588.80;;;
79488;BMP180;68949;53.176;18.088;2023-04-25T14:04:44;99595.00;;;
79488;BMP180;68949;53.176;18.088;2023-04-25T14:07:11;99595.20;;;
79488;BMP180;68949;53.176;18.088;2023-04-25T14:09:38;99594.20;;;
79488;BMP180;68949;53.176;18.088;2023-04-25T14:12:04;99591.20;;;
79488;BMP180;68949;53.176;18.088;2023-04-25T14:14:32;99587.80;;;
79488;BMP180;68949;53.176;18.088;2023-04-25T14:16:59;99577.80;;;
79488;BMP180;68949;53.176;18.088;2023-04-25T14:19:26;99590.60;;;
79488;BMP180;68949;53.176;18.088;2023-04-25T14:21:53;99580.80;;;
79488;BMP180;68949;53.176;18.088;2023-04-25T14:24:19;99589.00;;;
79488;BMP180;68949;53.176;18.088;2023-04-25T14:26:47;99590.60;;;
79488;BMP180;68949;53.176;18.088;2023-04-25T14:29:13;99613.80;;;
79488;BMP180;68949;53.176;18.088;2023-04-25T14:31:40;99619.00;;;
79488;BMP180;68949;53.176;18.088;2023-04-25T14:34:08;99627.20;;;
79488;BMP180;68949;53.176;18.088;2023-04-25T14:36:35;99635.40;;;
79488;BMP180;68949;53.176;18.088;2023-04-25T14:39:03;99649.00;;;
79488;BMP180;68949;53.176;18.088;2023-04-25T14:41:31;99650.40;;;
79488;BMP180;68949;53.176;18.088;2023-04-25T14:43:58;99664.40;;;
79488;BMP180;68949;53.176;18.088;2023-04-25T14:46:25;99668.40;;;
79488;BMP180;68949;53.176;18.088;2023-04-25T14:48:53;99673.80;;;
79488;BMP180;68949;53.176;18.088;2023-04-25T14:51:19;99683.80;;;
79488;BMP180;68949;53.176;18.088;2023-04-25T14:53:46;99685.20;;;
79488;BMP180;68949;53.176;18.088;2023-04-25T14:56:13;99687.80;;;
79488;BMP180;68949;53.176;18.088;2023-04-25T14:58:40;99695.00;;;
79488;BMP180;68949;53.176;18.088;2023-04-25T15:01:07;99706.20;;;
79488;BMP180;68949;53.176;18.088;2023-04-25T15:03:34;99703.20;;;
79488;BMP180;68949;53.176;18.088;2023-04-25T15:06:01;99712.20;;;
79488;BMP180;68949;53.176;18.088;2023-04-25T15:08:28;99714.60;;;
79488;BMP180;68949;53.176;18.088;2023-04-25T15:10:55;99718.80;;;
79488;BMP180;68949;53.176;18.088;2023-04-25T15:13:21;99717.20;;;
79488;BMP180;68949;53.176;18.088;2023-04-25T15:15:48;99721.80;;;
79488;BMP180;68949;53.176;18.088;2023-04-25T15:18:19;99726.00;;;
79488;BMP180;68949;53.176;18.088;2023-04-25T15:20:48;99722.40;;;
79488;BMP180;68949;53.176;18.088;2023-04-25T15:23:16;99732.60;;;